Time;durP1;ratioP1;P1;durP2;ratioP2;P2;SDS_P1;SDS_P2;PMS_P1;PMS_P2;Temp;Humidity;BMP_temperature;BMP_pressure;BME280_temperature;BME280_humidity;BME280_pressure;Samples;Min_cycle;Max_cycle;Signal;HPM_P1;HPM_P2
2021/10/31 00:01:44;;;;;;;17.50;15.70;;;;;;;10.96;83.70;95230.59;5057759;28;20221;-82
2021/10/31 00:04:10;;;;;;;17.50;15.70;;;;;;;11.01;83.73;95240.31;5057728;28;20197;-81
2021/10/31 00:06:37;;;;;;;17.37;15.67;;;;;;;11.05;83.09;95246.69;5056453;28;20766;-83
2021/10/31 00:09:07;;;;;;;17.47;15.87;;;;;;;11.06;82.97;95256.81;5057026;28;20688;-81
2021/10/31 00:11:33;;;;;;;17.83;16.07;;;;;;;11.05;82.78;95246.69;5057378;28;20222;-82
2021/10/31 00:14:01;;;;;;;17.93;16.13;;;;;;;11.03;82.61;95251.25;5056825;28;20202;-82
2021/10/31 00:16:28;;;;;;;18.40;16.40;;;;;;;10.95;83.24;95269.44;5037069;28;20218;-81
2021/10/31 00:18:58;;;;;;;17.47;15.77;;;;;;;10.91;83.65;95276.72;5044771;28;20201;-83
2021/10/31 00:21:26;;;;;;;18.87;16.97;;;;;;;10.91;82.83;95278.50;5057931;28;20221;-82
2021/10/31 00:23:54;;;;;;;17.87;16.10;;;;;;;10.87;83.36;95275.50;5057715;28;20651;-82
2021/10/31 00:26:21;;;;;;;17.50;15.70;;;;;;;10.91;83.15;95269.00;5056936;28;20197;-82
2021/10/31 00:28:48;;;;;;;17.40;15.70;;;;;;;10.89;83.05;95268.38;5058042;28;20220;-81
2021/10/31 00:31:14;;;;;;;17.07;15.37;;;;;;;10.79;83.25;95264.50;5057872;28;20225;-80
2021/10/31 00:33:40;;;;;;;16.93;15.23;;;;;;;10.79;83.44;95267.09;5056531;28;20201;-82
2021/10/31 00:36:08;;;;;;;17.03;15.33;;;;;;;10.80;83.57;95274.63;5056560;28;20221;-82
2021/10/31 00:38:35;;;;;;;17.20;15.50;;;;;;;10.82;83.56;95274.44;5056400;28;20677;-82
2021/10/31 00:41:01;;;;;;;17.67;15.97;;;;;;;10.77;84.42;95276.81;5056759;28;20232;-82
2021/10/31 00:43:28;;;;;;;16.93;15.23;;;;;;;10.85;83.42;95268.94;5056578;28;20834;-80
2021/10/31 00:45:54;;;;;;;17.73;15.93;;;;;;;10.77;84.16;95275.03;5056499;28;20197;-81
2021/10/31 00:48:21;;;;;;;17.27;15.43;;;;;;;10.81;83.89;95273.66;5056037;28;20594;-81
2021/10/31 00:50:50;;;;;;;17.17;15.47;;;;;;;10.85;83.69;95280.03;5056371;28;20744;-82
2021/10/31 00:53:19;;;;;;;17.33;15.70;;;;;;;10.86;83.50;95271.31;5057679;28;20205;-81
2021/10/31 00:55:45;;;;;;;17.30;15.60;;;;;;;10.81;84.08;95263.34;5056920;28;20232;-81
2021/10/31 00:58:13;;;;;;;17.13;15.33;;;;;;;10.71;84.61;95255.16;5056241;28;20518;-82
2021/10/31 01:00:40;;;;;;;18.10;16.20;;;;;;;10.54;85.47;95253.81;5055585;28;20247;-81
2021/10/31 01:03:07;;;;;;;17.13;15.47;;;;;;;10.54;85.29;95261.53;5056532;28;20209;-80
2021/10/31 01:05:53;;;;;;;16.10;14.57;;;;;;;10.57;85.43;95256.03;5055774;28;20211;-80
2021/10/31 01:08:39;;;;;;;16.97;15.27;;;;;;;10.66;84.97;95257.47;5056080;28;20208;-80
2021/10/31 01:11:28;;;;;;;17.17;15.47;;;;;;;10.71;85.24;95252.56;5056532;28;20312;-82
2021/10/31 01:14:05;;;;;;;17.33;15.53;;;;;;;10.78;84.82;95258.56;5055597;28;20185;-82
2021/10/31 01:16:52;;;;;;;16.70;15.00;;;;;;;10.80;84.93;95255.81;5035230;28;20221;-81
2021/10/31 01:19:45;;;;;;;14.97;13.57;;;;;;;10.81;85.30;95252.25;5046416;28;20201;-82
2021/10/31 01:22:26;;;;;;;13.90;12.50;;;;;;;10.84;85.04;95260.41;5055303;28;20641;-81
2021/10/31 01:25:09;;;;;;;14.13;12.73;;;;;;;10.90;84.90;95254.53;5055068;28;20204;-81
2021/10/31 01:27:53;;;;;;;14.17;12.73;;;;;;;10.93;84.94;95249.00;5055148;28;20201;-82
2021/10/31 01:30:29;;;;;;;13.73;12.40;;;;;;;10.93;84.40;95251.56;5056012;28;20212;-81
2021/10/31 01:33:04;;;;;;;13.93;12.13;;;;;;;10.94;84.54;95252.38;5055518;28;20201;-81
2021/10/31 01:35:48;;;;;;;13.37;12.07;;;;;;;10.97;84.24;95255.34;5055443;28;20235;-82
2021/10/31 01:38:21;;;;;;;12.80;11.60;;;;;;;10.91;84.19;95252.75;5054378;28;20201;-81
2021/10/31 01:40:56;;;;;;;14.40;12.90;;;;;;;10.91;83.91;95255.31;5055620;28;20236;-82
2021/10/31 01:43:30;;;;;;;13.07;11.83;;;;;;;10.83;84.06;95266.53;5055361;28;20212;-82
2021/10/31 01:46:07;;;;;;;12.90;11.57;;;;;;;10.82;84.45;95269.28;5055167;28;20233;-82
2021/10/31 01:48:43;;;;;;;11.67;10.50;;;;;;;10.86;84.09;95271.31;5101200;22;20233;-84
2021/10/31 01:51:18;;;;;;;11.20;10.10;;;;;;;10.90;84.76;95276.91;5038379;28;20197;-82
2021/10/31 01:53:52;;;;;;;11.67;10.53;;;;;;;10.95;84.10;95274.56;5037814;28;20197;-83
2021/10/31 01:56:25;;;;;;;11.50;10.30;;;;;;;10.92;84.05;95269.78;5037937;28;20312;-82
2021/10/31 01:58:58;;;;;;;11.50;10.30;;;;;;;10.97;83.83;95254.56;5038176;28;20261;-83
2021/10/31 02:01:28;;;;;;;11.70;10.57;;;;;;;11.00;83.54;95260.13;5037680;28;20206;-82
2021/10/31 02:03:55;;;;;;;11.60;10.50;;;;;;;11.02;83.43;95259.94;5037719;28;20198;-82
2021/10/31 02:06:23;;;;;;;10.37;9.37;;;;;;;11.00;83.53;95260.13;5037473;28;20198;-83
2021/10/31 02:08:51;;;;;;;11.03;9.93;;;;;;;11.00;83.32;95256.75;5036680;28;20230;-83
2021/10/31 02:11:21;;;;;;;12.10;9.70;;;;;;;11.01;82.98;95255.78;5037585;28;20212;-83
2021/10/31 02:13:52;;;;;;;10.77;9.77;;;;;;;11.02;83.03;95263.31;5037389;28;20205;-82
2021/10/31 02:16:19;;;;;;;11.07;9.27;;;;;;;11.00;82.49;95264.47;5037514;28;20222;-83
2021/10/31 02:18:46;;;;;;;10.43;9.33;;;;;;;11.01;82.59;95268.66;5037195;28;20230;-83
2021/10/31 02:21:17;;;;;;;10.70;9.53;;;;;;;11.00;82.09;95260.13;5037036;28;20198;-83
2021/10/31 02:23:46;;;;;;;9.97;9.03;;;;;;;11.02;82.19;95259.94;5037183;28;20716;-84
2021/10/31 02:26:13;;;;;;;10.03;9.13;;;;;;;11.00;81.75;95269.63;5037893;28;20198;-83
2021/10/31 02:28:39;;;;;;;9.83;8.93;;;;;;;11.01;81.88;95273.81;5037623;28;20232;-83
2021/10/31 02:31:06;;;;;;;9.80;8.90;;;;;;;11.02;81.68;95275.41;5038326;28;20206;-83
2021/10/31 02:33:32;;;;;;;9.67;8.67;;;;;;;11.03;81.36;95258.97;5037979;28;20202;-83
2021/10/31 02:35:59;;;;;;;9.97;8.73;;;;;;;11.01;81.21;95259.16;5037897;28;20209;-83
2021/10/31 02:38:25;;;;;;;9.57;8.60;;;;;;;11.03;81.18;95264.13;5036890;28;20228;-82
2021/10/31 02:40:53;;;;;;;9.77;8.77;;;;;;;10.99;80.88;95255.16;5037483;28;20283;-83
2021/10/31 02:43:19;;;;;;;9.57;8.67;;;;;;;10.88;80.91;95259.06;5037622;28;20206;-83
2021/10/31 02:45:46;;;;;;;10.20;8.93;;;;;;;10.84;80.92;95251.88;5037826;28;20206;-84
2021/10/31 02:48:15;;;;;;;9.00;8.10;;;;;;;10.81;80.78;95258.19;5037267;28;20253;-82
2021/10/31 02:50:45;;;;;;;8.97;8.17;;;;;;;10.83;80.43;95258.00;5059910;28;20215;-82
2021/10/31 02:53:18;;;;;;;8.90;8.10;;;;;;;10.86;80.38;95268.75;5061683;28;20427;-84
2021/10/31 02:55:57;;;;;;;9.07;8.17;;;;;;;10.91;80.32;95271.56;5061813;28;20198;-84
2021/10/31 02:58:31;;;;;;;8.87;7.90;;;;;;;10.96;80.16;95273.59;5081299;28;20221;-82
2021/10/31 03:01:02;;;;;;;7.73;7.07;;;;;;;11.00;80.18;95259.34;5081277;28;20322;-83
2021/10/31 03:03:29;;;;;;;8.13;7.43;;;;;;;10.99;80.09;95266.25;5081493;28;20751;-82
2021/10/31 03:05:57;;;;;;;8.53;7.77;;;;;;;11.01;79.72;95272.03;5081138;28;20705;-84
2021/10/31 03:08:24;;;;;;;8.43;7.60;;;;;;;11.01;79.18;95273.81;5081071;28;20220;-84
2021/10/31 03:10:53;;;;;;;7.63;6.93;;;;;;;11.00;79.00;95280.75;5081000;28;20214;-83
2021/10/31 03:13:21;;;;;;;7.80;7.10;;;;;;;11.01;78.57;95277.19;5080109;28;20212;-83
2021/10/31 03:15:47;;;;;;;7.90;7.10;;;;;;;10.99;78.88;95271.41;5081198;28;20207;-83
2021/10/31 03:18:14;;;;;;;7.73;7.00;;;;;;;10.97;78.89;95270.00;5080554;28;20250;-83
2021/10/31 03:20:41;;;;;;;8.20;7.27;;;;;;;10.96;79.04;95278.75;5080240;28;20610;-83
2021/10/31 03:23:08;;;;;;;7.43;6.73;;;;;;;10.94;78.94;95275.56;5079136;28;20388;-83
2021/10/31 03:25:34;;;;;;;7.93;7.10;;;;;;;10.80;79.00;95278.97;5060850;28;20201;-82
2021/10/31 03:28:01;;;;;;;7.90;7.10;;;;;;;10.63;79.44;95274.09;5059724;28;20221;-83
2021/10/31 03:30:29;;;;;;;8.00;7.30;;;;;;;10.57;80.01;95280.00;5061084;28;20205;-83
2021/10/31 03:32:56;;;;;;;8.20;7.20;;;;;;;10.53;80.53;95276.19;5060960;28;20205;-83
2021/10/31 03:35:22;;;;;;;8.00;7.30;;;;;;;10.51;80.28;95270.41;5060056;28;20675;-83
2021/10/31 03:37:49;;;;;;;7.30;6.60;;;;;;;10.50;80.53;95283.47;5060277;28;20232;-83
2021/10/31 03:40:15;;;;;;;7.73;7.00;;;;;;;10.53;80.21;95267.66;5060503;28;20205;-84
2021/10/31 03:42:42;;;;;;;7.40;6.70;;;;;;;10.52;79.52;95266.06;5060347;28;20232;-83
2021/10/31 03:45:09;;;;;;;7.53;6.73;;;;;;;10.49;79.75;95267.22;5060586;28;20209;-82
2021/10/31 03:47:41;;;;;;;7.03;6.37;;;;;;;10.52;79.71;95269.44;5059900;28;20233;-83
2021/10/31 03:50:09;;;;;;;7.70;6.40;;;;;;;10.52;79.02;95261.72;5059491;28;20508;-83
2021/10/31 03:52:35;;;;;;;6.33;5.83;;;;;;;10.53;78.53;95260.75;5060732;28;20297;-83
2021/10/31 03:55:01;;;;;;;6.73;6.03;;;;;;;10.55;78.37;95263.94;5060341;28;20228;-82
2021/10/31 03:57:28;;;;;;;6.37;5.77;;;;;;;10.58;78.14;95263.53;5067471;28;20252;-83
2021/10/31 03:59:54;;;;;;;6.17;5.57;;;;;;;10.61;77.57;95262.38;5060940;28;20201;-84
2021/10/31 04:02:21;;;;;;;5.83;5.33;;;;;;;10.57;78.11;95261.97;5059435;28;20217;-82
2021/10/31 04:04:49;;;;;;;6.43;5.83;;;;;;;10.60;77.69;95260.78;5060448;28;20251;-84
2021/10/31 04:07:15;;;;;;;6.60;5.97;;;;;;;10.60;77.49;95269.31;5060074;28;20208;-83
2021/10/31 04:09:42;;;;;;;6.23;5.63;;;;;;;10.60;77.17;95264.16;5060279;28;20627;-83
2021/10/31 04:12:09;;;;;;;6.50;5.90;;;;;;;10.62;77.40;95259.63;5059268;28;20574;-83
2021/10/31 04:14:35;;;;;;;6.90;6.27;;;;;;;10.61;77.05;95252.88;5059610;28;20213;-83
2021/10/31 04:17:04;;;;;;;6.30;5.70;;;;;;;10.61;76.80;95245.16;5059892;28;20230;-82
2021/10/31 04:19:31;;;;;;;7.33;6.00;;;;;;;10.61;76.68;95249.50;5059195;28;20224;-82
2021/10/31 04:21:58;;;;;;;6.30;5.70;;;;;;;10.64;76.95;95251.72;5059750;28;20202;-82
2021/10/31 04:24:25;;;;;;;8.00;5.90;;;;;;;10.63;76.81;95248.34;5070217;28;20201;-82
2021/10/31 04:26:52;;;;;;;6.43;5.83;;;;;;;10.61;76.63;95239.22;5079030;28;20224;-83
2021/10/31 04:29:18;;;;;;;5.87;5.37;;;;;;;10.60;76.48;95237.59;5080062;28;20599;-83
2021/10/31 04:31:44;;;;;;;6.73;6.13;;;;;;;10.59;76.78;95244.53;5079672;28;20212;-84
2021/10/31 04:34:11;;;;;;;6.23;5.63;;;;;;;10.57;76.17;95249.09;5079319;28;20571;-84
2021/10/31 04:36:37;;;;;;;6.70;6.00;;;;;;;10.56;76.55;95238.97;5079033;28;20581;-84
2021/10/31 04:39:06;;;;;;;6.53;5.83;;;;;;;10.55;76.84;95245.13;5078096;28;20225;-83
2021/10/31 04:41:32;;;;;;;6.03;5.53;;;;;;;10.55;76.64;95235.63;5079202;28;20817;-82
2021/10/31 04:43:59;;;;;;;6.90;6.20;;;;;;;10.53;76.71;95245.28;5078640;28;20570;-84
2021/10/31 04:46:25;;;;;;;6.97;6.27;;;;;;;10.51;76.57;95233.59;5079076;28;20609;-83
2021/10/31 04:48:52;;;;;;;7.00;6.13;;;;;;;10.50;76.70;95243.09;5066278;28;20225;-82
2021/10/31 04:51:18;;;;;;;6.73;6.10;;;;;;;10.50;76.33;95234.56;5059079;28;20205;-83
2021/10/31 04:53:45;;;;;;;6.47;5.70;;;;;;;10.48;76.65;95227.03;5058949;28;20212;-83
2021/10/31 04:56:16;;;;;;;5.93;5.43;;;;;;;10.48;76.57;95228.81;5063150;28;20204;-83
2021/10/31 04:58:43;;;;;;;6.50;5.87;;;;;;;10.45;77.03;95226.59;5060936;28;20230;-83
2021/10/31 05:01:09;;;;;;;6.70;5.43;;;;;;;10.45;76.67;95234.31;5058401;28;20204;-82
2021/10/31 05:03:36;;;;;;;5.30;4.87;;;;;;;10.46;76.00;95231.56;5059013;28;20952;-83
2021/10/31 05:06:02;;;;;;;5.80;5.20;;;;;;;10.41;75.61;95220.22;5058723;28;20208;-83
2021/10/31 05:08:29;;;;;;;5.70;5.20;;;;;;;10.36;75.47;95221.59;5058836;28;20221;-83
2021/10/31 05:10:55;;;;;;;5.40;4.90;;;;;;;10.37;75.19;95222.38;5058731;28;20590;-84
2021/10/31 05:13:23;;;;;;;5.60;4.93;;;;;;;10.35;75.36;95219.19;5058735;28;20201;-83
2021/10/31 05:15:49;;;;;;;5.87;4.77;;;;;;;10.27;75.22;95216.72;5059136;28;20201;-83
2021/10/31 05:18:16;;;;;;;5.20;4.80;;;;;;;10.23;75.08;95212.91;5057879;28;20225;-83
2021/10/31 05:20:43;;;;;;;5.40;4.90;;;;;;;10.14;75.13;95214.00;5058074;28;20648;-83
2021/10/31 05:23:09;;;;;;;6.23;4.33;;;;;;;10.14;75.43;95201.13;5059588;28;20202;-83
2021/10/31 05:25:35;;;;;;;4.43;4.00;;;;;;;10.13;75.35;95210.63;5072136;28;20208;-82
2021/10/31 05:28:02;;;;;;;4.97;4.50;;;;;;;10.16;75.24;95202.56;5070019;28;20228;-82
2021/10/31 05:30:30;;;;;;;4.67;4.23;;;;;;;10.22;75.17;95203.59;5050904;28;20734;-82
2021/10/31 05:32:56;;;;;;;4.63;4.23;;;;;;;10.21;73.71;95202.00;5051092;28;20201;-82
2021/10/31 05:35:23;;;;;;;4.50;4.10;;;;;;;10.25;74.58;95203.25;5050915;28;20217;-82
2021/10/31 05:37:56;;;;;;;5.80;4.47;;;;;;;10.25;74.44;95198.91;5051183;28;20217;-83
2021/10/31 05:40:22;;;;;;;5.30;4.40;;;;;;;10.30;75.01;95204.28;5052802;28;20308;-83
2021/10/31 05:42:49;;;;;;;4.60;4.20;;;;;;;10.29;74.69;95202.69;5051013;28;20197;-82
2021/10/31 05:45:15;;;;;;;7.13;4.20;;;;;;;10.26;74.61;95200.50;5053332;28;20208;-82
2021/10/31 05:47:45;;;;;;;6.87;4.27;;;;;;;10.26;74.54;95199.69;5055288;28;20189;-82
2021/10/31 05:50:13;;;;;;;5.93;4.03;;;;;;;10.26;74.33;95194.56;5056758;28;20220;-82
2021/10/31 05:52:40;;;;;;;4.60;4.10;;;;;;;10.24;73.56;95193.94;5053891;28;20716;-84
2021/10/31 05:55:08;;;;;;;4.33;3.93;;;;;;;10.24;73.80;95186.22;5053085;28;20205;-83
2021/10/31 05:57:35;;;;;;;6.60;3.93;;;;;;;10.24;73.59;95187.00;5054068;28;20276;-83
2021/10/31 06:00:06;;;;;;;4.27;3.87;;;;;;;10.26;73.94;95192.78;5054143;28;20842;-83
2021/10/31 06:02:32;;;;;;;5.17;4.00;;;;;;;10.28;73.53;95195.16;5053909;28;20201;-82
2021/10/31 06:05:00;;;;;;;5.23;4.17;;;;;;;10.28;73.41;95187.44;5053430;28;20202;-82
2021/10/31 06:07:27;;;;;;;4.17;3.77;;;;;;;10.26;73.27;95179.91;5053483;28;20197;-82
2021/10/31 06:09:53;;;;;;;4.80;4.33;;;;;;;10.27;73.68;95181.50;5053377;28;20260;-82
2021/10/31 06:12:20;;;;;;;4.80;4.40;;;;;;;10.30;73.81;95182.91;5053441;28;20696;-82
2021/10/31 06:14:46;;;;;;;4.70;4.30;;;;;;;10.31;73.64;95184.50;5053426;28;20212;-82
2021/10/31 06:17:13;;;;;;;4.93;4.43;;;;;;;10.34;73.61;95189.28;5053856;28;20212;-83
2021/10/31 06:19:40;;;;;;;4.60;4.10;;;;;;;10.32;73.35;95189.47;5053487;28;20221;-81
2021/10/31 06:22:08;;;;;;;4.33;3.93;;;;;;;10.32;73.00;95188.69;5070564;28;20269;-82
2021/10/31 06:24:35;;;;;;;4.43;4.03;;;;;;;10.30;72.94;95188.06;5070353;28;20301;-82
2021/10/31 06:27:01;;;;;;;4.30;3.90;;;;;;;10.31;73.01;95190.44;5058985;28;20205;-84
2021/10/31 06:29:28;;;;;;;4.80;4.33;;;;;;;10.34;73.18;95192.66;5056921;28;20310;-83
2021/10/31 06:31:58;;;;;;;4.40;4.00;;;;;;;10.36;73.11;95190.69;5057227;28;20205;-84
2021/10/31 06:34:24;;;;;;;4.50;4.10;;;;;;;10.46;73.05;95195.53;5057336;28;20197;-83
2021/10/31 06:36:51;;;;;;;5.90;4.30;;;;;;;10.59;73.10;95192.25;5057199;28;20197;-83
2021/10/31 06:39:18;;;;;;;4.30;3.90;;;;;;;10.73;72.34;95202.50;5057631;28;20247;-82
2021/10/31 06:41:45;;;;;;;4.30;3.60;;;;;;;10.84;71.61;95187.50;5057008;28;20206;-83
2021/10/31 06:44:12;;;;;;;4.93;4.43;;;;;;;10.82;70.47;95186.88;5056541;28;20583;-83
2021/10/31 06:46:38;;;;;;;4.53;4.13;;;;;;;10.82;70.79;95181.75;5055812;28;20206;-83
2021/10/31 06:49:05;;;;;;;4.83;4.40;;;;;;;10.96;70.95;95180.88;5062440;28;20224;-83
2021/10/31 06:51:32;;;;;;;6.93;4.20;;;;;;;11.26;70.45;95182.22;5055156;28;20615;-82
2021/10/31 06:53:58;;;;;;;4.30;4.00;;;;;;;11.75;68.79;95183.81;5055625;28;20557;-83
2021/10/31 06:56:32;;;;;;;4.57;4.17;;;;;;;12.29;66.95;95170.09;5054902;28;20201;-82
2021/10/31 06:59:00;;;;;;;4.47;4.03;;;;;;;12.77;64.82;95173.28;5055533;28;20275;-83
2021/10/31 07:01:27;;;;;;;5.23;3.87;;;;;;;13.11;63.66;95161.88;5055257;28;20197;-83
2021/10/31 07:03:53;;;;;;;3.97;3.67;;;;;;;13.49;61.71;95160.22;5054429;28;20224;-83
2021/10/31 07:06:20;;;;;;;4.47;3.80;;;;;;;13.85;62.02;95161.47;5054548;28;20209;-83
2021/10/31 07:08:46;;;;;;;4.33;3.93;;;;;;;14.21;60.96;95163.47;5054385;28;20218;-83
2021/10/31 07:11:20;;;;;;;5.47;3.90;;;;;;;14.57;60.25;95167.22;5054787;28;20205;-83
2021/10/31 07:13:48;;;;;;;3.83;3.47;;;;;;;14.80;58.94;95160.47;5053732;28;20209;-84
2021/10/31 07:16:17;;;;;;;4.40;4.00;;;;;;;14.97;58.80;95162.50;5058974;28;20193;-83
2021/10/31 07:18:43;;;;;;;4.47;3.80;;;;;;;15.03;58.37;95169.41;5073908;28;20386;-82
2021/10/31 07:21:10;;;;;;;3.87;3.57;;;;;;;15.02;58.37;95162.63;5073971;28;20201;-84
2021/10/31 07:23:36;;;;;;;3.67;3.37;;;;;;;14.98;57.62;95167.47;5073123;28;20577;-82
2021/10/31 07:26:03;;;;;;;4.07;3.70;;;;;;;14.95;58.15;95160.13;5072874;28;20204;-82
2021/10/31 07:28:29;;;;;;;3.90;3.60;;;;;;;14.97;57.80;95159.91;5072500;28;20319;-83
2021/10/31 07:31:03;;;;;;;4.30;3.90;;;;;;;15.08;57.26;95151.41;5073076;28;20208;-82
2021/10/31 07:33:30;;;;;;;4.07;3.63;;;;;;;15.21;57.07;95146.09;5072516;28;20273;-83
2021/10/31 07:35:56;;;;;;;8.43;3.77;;;;;;;15.42;56.19;95148.25;5068040;28;20197;-83
2021/10/31 07:38:27;;;;;;;3.50;3.20;;;;;;;15.63;55.61;95148.84;5055152;28;20723;-82
2021/10/31 07:40:54;;;;;;;4.67;4.27;;;;;;;15.84;55.73;95150.97;5055614;28;20201;-83
2021/10/31 07:43:21;;;;;;;9.70;8.00;;;;;;;16.04;55.28;95148.13;5048417;28;20201;-83
2021/10/31 07:45:47;;;;;;;10.53;9.37;;;;;;;16.27;54.51;95144.81;5055334;28;20206;-83
2021/10/31 07:48:15;;;;;;;5.70;5.20;;;;;;;16.49;54.43;95143.28;5054903;28;20232;-83
2021/10/31 07:50:42;;;;;;;4.13;3.73;;;;;;;16.57;51.30;95143.72;5061721;28;20197;-83
2021/10/31 07:53:10;;;;;;;3.70;3.40;;;;;;;16.68;51.35;95144.00;5054645;28;20205;-83
2021/10/31 07:55:38;;;;;;;3.70;3.40;;;;;;;16.88;52.32;95150.47;5055848;28;20623;-82
2021/10/31 07:58:06;;;;;;;4.47;4.07;;;;;;;17.09;51.28;95149.09;5055358;28;20232;-82
2021/10/31 08:00:33;;;;;;;4.78;4.38;;;;;;;17.24;51.25;95138.22;5055950;28;20209;-83
2021/10/31 08:03:00;;;;;;;3.75;3.45;;;;;;;17.29;50.44;95140.13;5055211;28;20665;-83
2021/10/31 08:05:28;;;;;;;3.50;3.20;;;;;;;17.03;49.17;95133.59;5055524;28;20224;-83
2021/10/31 08:07:57;;;;;;;3.47;3.17;;;;;;;17.09;50.62;95135.31;5055490;28;20221;-83
2021/10/31 08:10:23;;;;;;;3.35;2.80;;;;;;;17.09;50.75;95130.88;5055556;28;20205;-83
2021/10/31 08:12:50;;;;;;;3.38;3.08;;;;;;;17.08;48.97;95134.50;5055066;28;20665;-84
2021/10/31 08:15:18;;;;;;;4.45;2.85;;;;;;;16.95;48.76;95132.13;5054943;28;20212;-83
2021/10/31 08:17:45;;;;;;;3.42;2.60;;;;;;;16.87;49.13;95122.88;5054216;28;20201;-83
2021/10/31 08:20:13;;;;;;;3.88;2.60;;;;;;;16.84;48.31;95118.13;5054818;28;20205;-83
2021/10/31 08:22:40;;;;;;;4.03;2.72;;;;;;;16.87;49.07;95109.06;5054604;28;20201;-84
2021/10/31 08:25:07;;;;;;;2.95;2.75;;;;;;;16.95;49.24;95111.31;5054951;28;20209;-84
2021/10/31 08:27:34;;;;;;;3.40;2.72;;;;;;;17.07;50.11;95109.50;5054276;28;20581;-83
2021/10/31 08:30:01;;;;;;;3.42;2.75;;;;;;;17.02;48.55;95101.59;5054441;28;20618;-84
2021/10/31 08:32:28;;;;;;;3.03;2.83;;;;;;;17.08;50.14;95103.28;5054060;28;20754;-83
2021/10/31 08:34:56;;;;;;;3.08;2.78;;;;;;;17.09;48.48;95104.09;5054326;28;20292;-83
2021/10/31 08:37:22;;;;;;;3.00;2.60;;;;;;;16.97;46.79;95106.69;5053772;28;20197;-83
2021/10/31 08:39:50;;;;;;;3.22;2.92;;;;;;;16.96;47.55;95105.09;5053809;28;20225;-83
2021/10/31 08:42:17;;;;;;;2.88;2.67;;;;;;;16.94;47.46;95101.94;5053141;28;20193;-83
2021/10/31 08:44:44;;;;;;;2.92;2.70;;;;;;;16.76;46.33;95089.06;5053417;28;20201;-85
2021/10/31 08:47:10;;;;;;;2.95;2.67;;;;;;;16.69;46.70;95086.59;5052957;28;20197;-82
2021/10/31 08:49:37;;;;;;;3.70;3.08;;;;;;;16.64;45.86;95083.06;5059600;28;20290;-83
2021/10/31 08:52:07;;;;;;;2.75;2.53;;;;;;;16.69;46.72;95075.41;5052484;28;20220;-82
2021/10/31 08:54:35;;;;;;;2.70;2.50;;;;;;;16.58;45.77;95074.34;5053327;28;20680;-83
2021/10/31 08:57:03;;;;;;;2.85;2.65;;;;;;;16.63;45.82;95066.69;5052774;28;20210;-83
2021/10/31 08:59:30;;;;;;;5.03;2.70;;;;;;;16.76;46.14;95053.44;5053226;28;20267;-84
2021/10/31 09:01:56;;;;;;;2.35;2.15;;;;;;;16.77;45.55;95052.44;5053767;28;20212;-83
2021/10/31 09:04:23;;;;;;;3.17;2.60;;;;;;;16.79;45.13;95047.00;5054329;28;20201;-83
2021/10/31 09:06:52;;;;;;;3.15;2.13;;;;;;;16.86;45.90;95045.88;5059140;28;20201;-83
2021/10/31 09:09:19;;;;;;;2.58;2.38;;;;;;;16.88;45.01;95040.44;5057402;28;20275;-84
2021/10/31 09:11:46;;;;;;;2.55;2.35;;;;;;;16.86;45.44;95037.28;5054655;28;20259;-84
2021/10/31 09:14:14;;;;;;;2.90;2.60;;;;;;;16.99;46.27;95031.03;5056055;28;20212;-84
2021/10/31 09:16:40;;;;;;;3.90;2.45;;;;;;;16.84;44.88;95026.31;5055882;28;20197;-83
2021/10/31 09:19:07;;;;;;;3.22;2.83;;;;;;;16.91;45.12;95019.19;5056137;28;20271;-83
2021/10/31 09:21:43;;;;;;;;;;;;;;;;;;;;;
2021/10/31 09:24:10;;;;;;;2.33;2.13;;;;;;;17.13;45.33;95012.31;5054462;28;20285;-83
2021/10/31 09:26:36;;;;;;;2.20;2.00;;;;;;;17.19;44.81;95011.41;5055607;28;20205;-84
2021/10/31 09:29:03;;;;;;;2.28;1.90;;;;;;;17.29;45.17;95008.22;5054898;28;20225;-84
2021/10/31 09:31:31;;;;;;;2.15;1.95;;;;;;;17.33;44.23;95008.53;5054474;28;20201;-85
2021/10/31 09:33:59;;;;;;;2.30;2.10;;;;;;;17.40;45.12;95003.97;5054089;28;20201;-84
2021/10/31 09:36:25;;;;;;;2.75;2.25;;;;;;;17.53;44.79;94999.28;5052933;28;20232;-83
2021/10/31 09:38:54;;;;;;;2.10;2.00;;;;;;;17.69;45.30;95004.81;5053066;28;20283;-84
2021/10/31 09:41:36;;;;;;;2.15;2.00;;;;;;;17.75;43.77;94991.63;5053298;28;20197;-84
2021/10/31 09:44:19;;;;;;;2.22;2.03;;;;;;;17.73;44.11;94987.66;5053204;28;20197;-84
2021/10/31 09:46:49;;;;;;;2.70;2.22;;;;;;;17.69;44.50;94991.78;5053203;28;20197;-85
2021/10/31 09:49:20;;;;;;;1.95;1.77;;;;;;;17.61;44.10;94988.50;5059795;28;20227;-83
2021/10/31 09:51:50;;;;;;;3.72;2.03;;;;;;;17.59;44.37;94979.34;5053289;28;20202;-83
2021/10/31 09:54:18;;;;;;;2.03;1.83;;;;;;;17.58;44.69;94973.34;5053191;28;20198;-83
2021/10/31 09:56:45;;;;;;;2.15;1.95;;;;;;;17.73;45.94;94964.22;5052297;28;20209;-83
2021/10/31 09:59:14;;;;;;;2.13;1.92;;;;;;;17.86;45.18;94962.13;5052566;28;20229;-85
2021/10/31 10:04:35;;;;;;;2.45;1.73;;;;;;;17.84;42.35;94968.59;5041988;28;20198;-83
2021/10/31 10:07:04;;;;;;;1.98;1.80;;;;;;;17.88;42.21;94960.06;5052117;28;20202;-84
2021/10/31 10:09:32;;;;;;;1.70;1.60;;;;;;;17.98;42.67;94958.63;5053178;28;20218;-85
2021/10/31 10:12:00;;;;;;;2.10;1.90;;;;;;;17.99;41.83;94955.00;5053052;28;20566;-84
2021/10/31 10:14:28;;;;;;;1.88;1.67;;;;;;;18.03;41.94;94953.50;5052512;28;20198;-84
2021/10/31 10:16:57;;;;;;;1.90;1.63;;;;;;;18.04;42.19;94942.06;5052951;28;20205;-85
2021/10/31 10:19:26;;;;;;;2.00;1.85;;;;;;;18.15;42.58;94934.16;5052709;28;20225;-83
2021/10/31 10:21:57;;;;;;;1.92;1.83;;;;;;;18.22;42.50;94934.00;5052544;28;20209;-84
2021/10/31 10:24:24;;;;;;;2.80;1.98;;;;;;;18.27;42.91;94927.03;5052716;28;20201;-84
2021/10/31 10:26:55;;;;;;;1.80;1.70;;;;;;;18.33;42.55;94920.06;5052974;28;20208;-84
2021/10/31 10:29:24;;;;;;;4.78;4.35;;;;;;;18.38;42.42;94911.53;5052265;28;20251;-84
2021/10/31 10:31:52;;;;;;;4.40;3.70;;;;;;;18.40;41.98;94906.84;5053077;28;20212;-84
2021/10/31 10:34:32;;;;;;;1.92;1.83;;;;;;;18.33;41.30;94899.19;5051982;28;20205;-84
2021/10/31 10:37:05;;;;;;;1.73;1.63;;;;;;;18.31;41.18;94890.84;5051691;28;20208;-83
2021/10/31 10:39:34;;;;;;;1.80;1.65;;;;;;;18.28;41.41;94883.50;5051846;28;20233;-84
2021/10/31 10:42:01;;;;;;;2.30;2.00;;;;;;;18.37;42.07;94883.88;5052378;28;20201;-83
2021/10/31 10:44:30;;;;;;;2.25;1.80;;;;;;;18.38;40.88;94880.25;5051853;28;20296;-84
2021/10/31 10:46:59;;;;;;;1.88;1.70;;;;;;;18.46;41.14;94875.41;5051975;28;20202;-83
2021/10/31 10:49:28;;;;;;;2.50;2.30;;;;;;;18.50;41.17;94863.44;5057905;28;20221;-83
2021/10/31 10:52:20;;;;;;;1.63;1.52;;;;;;;18.54;40.53;94861.13;5050555;28;20201;-83
2021/10/31 10:54:49;;;;;;;1.60;1.50;;;;;;;18.59;40.38;94853.41;5051075;28;20240;-83
2021/10/31 10:57:16;;;;;;;1.67;1.58;;;;;;;18.66;40.49;94845.41;5050568;28;20205;-83
2021/10/31 10:59:43;;;;;;;2.55;2.25;;;;;;;18.70;40.21;94849.88;5050307;28;20720;-84
2021/10/31 11:02:12;;;;;;;12.18;11.00;;;;;;;18.71;40.04;94845.44;5050910;28;20201;-83
2021/10/31 11:04:40;;;;;;;2.80;2.50;;;;;;;18.74;40.33;94844.97;5050516;28;20213;-84
2021/10/31 11:07:08;;;;;;;1.55;1.45;;;;;;;18.68;39.73;94845.94;5050234;28;20271;-84
2021/10/31 11:09:41;;;;;;;1.70;1.60;;;;;;;18.69;39.14;94840.47;5051488;28;20220;-85
2021/10/31 11:12:24;;;;;;;1.80;1.70;;;;;;;18.74;39.88;94843.16;5057916;28;20202;-84
2021/10/31 11:14:52;;;;;;;1.60;1.50;;;;;;;18.76;39.82;94835.06;5052704;28;20205;-83
2021/10/31 11:17:19;;;;;;;2.22;1.58;;;;;;;18.76;39.36;94828.03;5054594;28;20316;-84
2021/10/31 11:19:46;;;;;;;1.88;1.77;;;;;;;18.77;39.83;94824.41;5055126;28;20226;-83
2021/10/31 11:22:14;;;;;;;3.92;3.55;;;;;;;18.76;39.77;94816.81;5058130;28;20229;-84
2021/10/31 11:24:46;;;;;;;1.92;1.83;;;;;;;18.80;40.15;94820.53;5054359;28;20575;-83
2021/10/31 11:27:15;;;;;;;1.98;1.77;;;;;;;18.88;39.80;94817.44;5054381;28;20212;-83
2021/10/31 11:29:43;;;;;;;2.03;1.85;;;;;;;18.93;39.75;94807.84;5054560;28;20695;-83
2021/10/31 11:32:11;;;;;;;2.42;2.10;;;;;;;18.97;39.63;94806.34;5055143;28;20225;-84
2021/10/31 11:34:39;;;;;;;2.00;1.90;;;;;;;19.03;39.60;94796.75;5053930;28;20705;-83
2021/10/31 11:37:07;;;;;;;1.95;1.80;;;;;;;19.09;39.92;94794.94;5054118;28;20201;-84
2021/10/31 11:39:34;;;;;;;1.77;1.67;;;;;;;19.21;39.72;94785.13;5053440;28;20866;-84
2021/10/31 11:42:05;;;;;;;1.88;1.63;;;;;;;19.31;40.00;94779.97;5053908;28;20194;-84